Time,TemperatureF,DewpointF,PressureIn,WindDirection,WindDirectionDegrees,WindSpeedMPH,WindSpeedGustMPH,Humidity,HourlyPrecipIn,Conditions,Clouds,dailyrainin,SoftwareType,DateUTC
2013-07-09 00:01:00,73.6,66.4,30.08,SW,225,1.1,4.9,78,0.00,,,0.00,WUHU216HW,2013-07-09 04:01:00,
2013-07-09 00:06:00,73.6,66.4,30.09,SSW,203,3.4,4.9,78,0.00,,,0.00,WUHU216HW,2013-07-09 04:06:00,
2013-07-09 00:11:00,73.6,66.8,30.09,SW,225,2.5,4.9,79,0.00,,,0.00,WUHU216HW,2013-07-09 04:11:00,
2013-07-09 00:16:00,73.4,66.6,30.09,WSW,248,2.5,4.9,79,0.00,,,0.00,WUHU216HW,2013-07-09 04:16:00,
2013-07-09 00:21:00,73.4,66.6,30.09,SW,225,2.0,4.9,79,0.00,,,0.00,WUHU216HW,2013-07-09 04:21:00,
2013-07-09 00:26:00,73.3,66.4,30.09,SW,225,0.2,4.9,79,0.00,,,0.00,WUHU216HW,2013-07-09 04:26:00,
2013-07-09 00:31:00,73.1,66.3,30.09,WSW,248,0.4,4.9,79,0.00,,,0.00,WUHU216HW,2013-07-09 04:31:00,
2013-07-09 00:36:00,73.1,66.3,30.09,SW,225,0.4,4.9,79,0.00,,,0.00,WUHU216HW,2013-07-09 04:36:00,
2013-07-09 00:41:00,73.1,66.3,30.09,SSE,158,1.8,4.9,79,0.00,,,0.00,WUHU216HW,2013-07-09 04:41:00,
2013-07-09 00:46:00,73.1,66.6,30.09,SW,225,0.9,4.9,80,0.00,,,0.00,WUHU216HW,2013-07-09 04:46:00,
2013-07-09 00:51:00,73.1,66.6,30.09,SE,135,0.4,4.9,80,0.00,,,0.00,WUHU216HW,2013-07-09 04:51:00,
2013-07-09 00:56:00,72.9,66.4,30.09,SSW,203,0.2,4.9,80,0.00,,,0.00,WUHU216HW,2013-07-09 04:56:00,
2013-07-09 01:01:00,72.9,66.4,30.09,SSW,203,0.4,4.9,80,0.00,,,0.00,WUHU216HW,2013-07-09 05:01:00,
2013-07-09 01:06:00,72.7,66.2,30.09,NW,315,0.4,4.9,80,0.00,,,0.00,WUHU216HW,2013-07-09 05:06:00,
2013-07-09 01:11:00,72.7,66.6,30.09,SW,225,1.1,4.9,81,0.00,,,0.00,WUHU216HW,2013-07-09 05:11:00,
2013-07-09 01:16:00,72.7,66.6,30.09,SE,135,0.4,4.9,81,0.00,,,0.00,WUHU216HW,2013-07-09 05:16:00,
2013-07-09 01:21:00,72.7,66.6,30.08,SSW,203,0.0,4.9,81,0.00,,,0.00,WUHU216HW,2013-07-09 05:21:00,
2013-07-09 01:26:00,72.7,66.6,30.08,East,90,0.4,4.9,81,0.00,,,0.00,WUHU216HW,2013-07-09 05:26:00,
2013-07-09 01:31:00,72.7,66.6,30.08,WSW,248,1.1,4.9,81,0.00,,,0.00,WUHU216HW,2013-07-09 05:31:00,
2013-07-09 01:36:00,72.5,66.4,30.08,South,180,3.1,4.9,81,0.00,,,0.00,WUHU216HW,2013-07-09 05:36:00,
2013-07-09 01:41:00,72.5,66.4,30.08,WSW,248,0.4,4.9,81,0.00,,,0.00,WUHU216HW,2013-07-09 05:41:00,
2013-07-09 01:46:00,72.5,66.4,30.08,SW,225,2.5,4.9,81,0.00,,,0.00,WUHU216HW,2013-07-09 05:46:00,
2013-07-09 01:51:00,72.5,66.4,30.08,NW,315,0.7,4.9,81,0.00,,,0.00,WUHU216HW,2013-07-09 05:51:00,
2013-07-09 01:56:00,72.4,65.9,30.08,WSW,248,0.7,4.9,80,0.00,,,0.00,WUHU216HW,2013-07-09 05:56:00,
2013-07-09 02:01:00,72.4,65.9,30.08,WNW,293,2.5,4.9,80,0.00,,,0.00,WUHU216HW,2013-07-09 06:01:00,
2013-07-09 02:06:00,72.4,65.9,30.08,West,270,0.0,4.9,80,0.00,,,0.00,WUHU216HW,2013-07-09 06:06:00,
2013-07-09 02:11:00,72.2,66.1,30.07,SW,225,1.8,4.9,81,0.00,,,0.00,WUHU216HW,2013-07-09 06:11:00,
2013-07-09 02:16:00,72.0,65.9,30.07,SW,225,4.9,4.9,81,0.00,,,0.00,WUHU216HW,2013-07-09 06:16:00,
2013-07-09 02:21:00,72.0,65.9,30.07,SW,225,1.1,4.9,81,0.00,,,0.00,WUHU216HW,2013-07-09 06:21:00,
2013-07-09 02:26:00,72.0,65.9,30.07,SSW,203,0.9,4.9,81,0.00,,,0.00,WUHU216HW,2013-07-09 06:26:00,
2013-07-09 02:31:00,72.0,65.9,30.07,SSW,203,0.4,4.9,81,0.00,,,0.00,WUHU216HW,2013-07-09 06:31:00,
2013-07-09 02:36:00,72.0,65.9,30.07,South,180,0.4,4.9,81,0.00,,,0.00,WUHU216HW,2013-07-09 06:36:00,
2013-07-09 02:41:00,72.0,65.9,30.07,SSW,203,0.7,4.9,81,0.00,,,0.00,WUHU216HW,2013-07-09 06:41:00,
2013-07-09 02:47:00,72.0,65.9,30.07,SSW,203,2.0,4.9,81,0.00,,,0.00,WUHU216HW,2013-07-09 06:47:00,
2013-07-09 02:52:00,72.0,65.9,30.07,SW,225,4.0,4.9,81,0.00,,,0.00,WUHU216HW,2013-07-09 06:52:00,
2013-07-09 02:57:00,72.0,65.9,30.07,SW,225,4.0,5.1,81,0.00,,,0.00,WUHU216HW,2013-07-09 06:57:00,
2013-07-09 03:02:00,72.0,65.9,30.07,South,180,3.4,5.1,81,0.00,,,0.00,WUHU216HW,2013-07-09 07:02:00,
2013-07-09 03:07:00,71.8,65.7,30.07,SSW,203,2.9,4.9,81,0.00,,,0.00,WUHU216HW,2013-07-09 07:07:00,
2013-07-09 03:12:00,71.8,65.7,30.07,SW,225,2.9,4.9,81,0.00,,,0.00,WUHU216HW,2013-07-09 07:12:00,
2013-07-09 03:17:00,71.8,66.1,30.07,WSW,248,2.9,4.9,82,0.00,,,0.00,WUHU216HW,2013-07-09 07:17:00,
2013-07-09 03:22:00,71.6,65.9,30.07,West,270,1.1,4.9,82,0.00,,,0.00,WUHU216HW,2013-07-09 07:22:00,
2013-07-09 03:27:00,71.6,65.9,30.07,SSW,203,2.5,4.9,82,0.00,,,0.00,WUHU216HW,2013-07-09 07:27:00,
2013-07-09 03:32:00,71.5,65.7,30.07,SW,225,1.8,4.9,82,0.00,,,0.00,WUHU216HW,2013-07-09 07:32:00,
2013-07-09 03:37:00,71.6,65.9,30.07,SW,225,2.5,4.9,82,0.00,,,0.00,WUHU216HW,2013-07-09 07:37:00,
2013-07-09 03:42:00,71.5,65.7,30.07,SSW,203,1.1,4.9,82,0.00,,,0.00,WUHU216HW,2013-07-09 07:42:00,
2013-07-09 03:47:00,71.5,65.7,30.07,WSW,248,0.4,4.9,82,0.00,,,0.00,WUHU216HW,2013-07-09 07:47:00,
2013-07-09 03:52:00,71.3,65.5,30.07,WSW,248,0.4,4.9,82,0.00,,,0.00,WUHU216HW,2013-07-09 07:52:00,
2013-07-09 03:57:00,71.3,65.5,30.07,SW,225,1.1,4.9,82,0.00,,,0.00,WUHU216HW,2013-07-09 07:57:00,
2013-07-09 04:02:00,71.3,65.5,30.07,SSW,203,0.0,4.9,82,0.00,,,0.00,WUHU216HW,2013-07-09 08:02:00,
2013-07-09 04:07:00,71.3,65.5,30.07,WSW,248,0.0,4.9,82,0.00,,,0.00,WUHU216HW,2013-07-09 08:07:00,
2013-07-09 04:12:00,71.5,65.7,30.07,WSW,248,0.2,4.9,82,0.00,,,0.00,WUHU216HW,2013-07-09 08:12:00,
2013-07-09 04:17:00,71.3,65.5,30.07,SSW,203,0.0,4.9,82,0.00,,,0.00,WUHU216HW,2013-07-09 08:17:00,
2013-07-09 04:22:00,71.3,65.5,30.07,SW,225,1.6,4.9,82,0.00,,,0.00,WUHU216HW,2013-07-09 08:22:00,
2013-07-09 04:27:00,71.3,65.5,30.07,SW,225,0.0,4.9,82,0.00,,,0.00,WUHU216HW,2013-07-09 08:27:00,
2013-07-09 04:32:00,71.5,65.7,30.07,SSW,203,1.1,4.9,82,0.00,,,0.00,WUHU216HW,2013-07-09 08:32:00,
2013-07-09 04:37:00,71.3,65.5,30.07,SSW,203,0.4,4.9,82,0.00,,,0.00,WUHU216HW,2013-07-09 08:37:00,
2013-07-09 04:42:00,71.3,65.5,30.07,SSW,203,0.9,4.9,82,0.00,,,0.00,WUHU216HW,2013-07-09 08:42:00,
2013-07-09 04:47:00,71.3,65.5,30.07,SW,225,0.4,4.9,82,0.00,,,0.00,WUHU216HW,2013-07-09 08:47:00,
2013-07-09 04:52:00,71.3,65.5,30.07,West,270,0.4,4.9,82,0.00,,,0.00,WUHU216HW,2013-07-09 08:52:00,
2013-07-09 04:57:00,71.3,65.5,30.07,WSW,248,0.0,4.9,82,0.00,,,0.00,WUHU216HW,2013-07-09 08:57:00,
2013-07-09 05:02:00,71.3,65.5,30.07,SSW,203,0.0,4.9,82,0.00,,,0.00,WUHU216HW,2013-07-09 09:02:00,
2013-07-09 05:07:00,71.3,65.5,30.07,SW,225,0.4,4.9,82,0.00,,,0.00,WUHU216HW,2013-07-09 09:07:00,
2013-07-09 05:12:00,71.1,65.4,30.07,SW,225,1.1,4.9,82,0.00,,,0.00,WUHU216HW,2013-07-09 09:12:00,
2013-07-09 05:17:00,71.1,65.4,30.07,West,270,0.9,4.9,82,0.00,,,0.00,WUHU216HW,2013-07-09 09:17:00,
2013-07-09 05:24:00,71.1,65.4,30.07,SW,225,1.1,4.9,82,0.00,,,0.00,WUHU216HW,2013-07-09 09:24:00,
2013-07-09 05:29:00,71.1,65.4,30.07,WSW,248,2.9,4.9,82,0.00,,,0.00,WUHU216HW,2013-07-09 09:29:00,
2013-07-09 05:34:00,71.1,65.4,30.07,WSW,248,1.6,4.9,82,0.00,,,0.00,WUHU216HW,2013-07-09 09:34:00,
2013-07-09 05:39:00,70.9,65.2,30.08,SW,225,1.3,4.9,82,0.00,,,0.00,WUHU216HW,2013-07-09 09:39:00,
2013-07-09 05:44:00,70.9,65.2,30.08,SW,225,2.0,4.9,82,0.00,,,0.00,WUHU216HW,2013-07-09 09:44:00,
2013-07-09 05:49:00,70.9,65.2,30.08,SW,225,0.4,4.9,82,0.00,,,0.00,WUHU216HW,2013-07-09 09:49:00,
2013-07-09 05:54:00,70.9,65.2,30.08,WSW,248,1.1,4.9,82,0.00,,,0.00,WUHU216HW,2013-07-09 09:54:00,
2013-07-09 05:59:00,70.9,65.4,30.08,NNW,338,0.4,4.9,83,0.00,,,0.00,WUHU216HW,2013-07-09 09:59:00,
2013-07-09 06:04:00,70.9,65.2,30.08,SW,225,1.1,4.9,82,0.00,,,0.00,WUHU216HW,2013-07-09 10:04:00,
2013-07-09 06:09:00,70.9,65.2,30.08,SW,225,1.8,4.9,82,0.00,,,0.00,WUHU216HW,2013-07-09 10:09:00,
2013-07-09 06:14:00,70.9,65.2,30.08,SW,225,1.1,4.9,82,0.00,,,0.00,WUHU216HW,2013-07-09 10:14:00,
2013-07-09 06:19:00,70.9,65.2,30.08,South,180,0.4,4.9,82,0.00,,,0.00,WUHU216HW,2013-07-09 10:19:00,
2013-07-09 06:24:00,70.9,65.4,30.08,WSW,248,1.1,4.9,83,0.00,,,0.00,WUHU216HW,2013-07-09 10:24:00,
2013-07-09 06:29:00,70.9,65.2,30.09,SW,225,2.0,4.9,82,0.00,,,0.00,WUHU216HW,2013-07-09 10:29:00,
2013-07-09 06:34:00,70.9,65.2,30.09,West,270,0.0,4.9,82,0.00,,,0.00,WUHU216HW,2013-07-09 10:34:00,
2013-07-09 06:39:00,71.1,65.4,30.09,WSW,248,0.7,4.9,82,0.00,,,0.00,WUHU216HW,2013-07-09 10:39:00,
2013-07-09 06:44:00,70.9,65.4,30.09,WNW,293,0.2,4.9,83,0.00,,,0.00,WUHU216HW,2013-07-09 10:44:00,
2013-07-09 06:49:00,71.1,65.6,30.09,SSE,158,0.4,4.9,83,0.00,,,0.00,WUHU216HW,2013-07-09 10:49:00,
2013-07-09 06:54:00,71.1,65.6,30.08,SSW,203,3.1,4.9,83,0.00,,,0.00,WUHU216HW,2013-07-09 10:54:00,
2013-07-09 06:59:00,71.1,65.6,30.09,WSW,248,1.1,4.9,83,0.00,,,0.00,WUHU216HW,2013-07-09 10:59:00,
2013-07-09 07:04:00,71.1,65.6,30.08,WSW,248,0.4,4.9,83,0.00,,,0.00,WUHU216HW,2013-07-09 11:04:00,
2013-07-09 07:09:00,71.1,65.6,30.09,SW,225,2.7,4.9,83,0.00,,,0.00,WUHU216HW,2013-07-09 11:09:00,
2013-07-09 07:14:00,71.1,65.6,30.09,West,270,0.9,4.9,83,0.00,,,0.00,WUHU216HW,2013-07-09 11:14:00,
2013-07-09 07:19:00,71.1,65.6,30.09,SW,225,1.3,4.9,83,0.00,,,0.00,WUHU216HW,2013-07-09 11:19:00,
2013-07-09 07:24:00,71.1,65.6,30.09,SSW,203,1.6,4.9,83,0.00,,,0.00,WUHU216HW,2013-07-09 11:24:00,
2013-07-09 07:29:00,71.1,65.6,30.09,SW,225,1.1,4.9,83,0.00,,,0.00,WUHU216HW,2013-07-09 11:29:00,
2013-07-09 07:34:00,71.3,65.8,30.10,WSW,248,0.2,4.9,83,0.00,,,0.00,WUHU216HW,2013-07-09 11:34:00,
2013-07-09 07:39:00,71.3,65.8,30.10,SSW,203,1.8,4.9,83,0.00,,,0.00,WUHU216HW,2013-07-09 11:39:00,
2013-07-09 07:44:00,71.3,65.8,30.10,West,270,1.3,4.9,83,0.00,,,0.00,WUHU216HW,2013-07-09 11:44:00,
2013-07-09 07:49:00,71.3,65.8,30.10,SSW,203,0.7,4.9,83,0.00,,,0.00,WUHU216HW,2013-07-09 11:49:00,
2013-07-09 07:54:00,71.3,65.8,30.10,WSW,248,1.3,4.9,83,0.00,,,0.00,WUHU216HW,2013-07-09 11:54:00,
2013-07-09 07:59:00,71.3,65.8,30.09,South,180,2.7,4.9,83,0.00,,,0.00,WUHU216HW,2013-07-09 11:59:00,
2013-07-09 08:04:00,71.3,65.8,30.10,WSW,248,2.5,4.9,83,0.00,,,0.00,WUHU216HW,2013-07-09 12:04:00,
2013-07-09 08:10:00,71.5,66.0,30.10,West,270,1.6,4.9,83,0.00,,,0.00,WUHU216HW,2013-07-09 12:10:00,
2013-07-09 08:15:00,71.5,66.0,30.10,WSW,248,0.0,4.9,83,0.00,,,0.00,WUHU216HW,2013-07-09 12:15:00,
2013-07-09 08:20:00,71.5,66.0,30.09,South,180,1.3,4.9,83,0.00,,,0.00,WUHU216HW,2013-07-09 12:20:00,
2013-07-09 08:25:00,71.6,66.2,30.09,SW,225,4.3,4.9,83,0.00,,,0.00,WUHU216HW,2013-07-09 12:25:00,
2013-07-09 08:30:00,71.8,66.1,30.10,West,270,0.0,4.9,82,0.00,,,0.00,WUHU216HW,2013-07-09 12:30:00,
2013-07-09 08:35:00,71.8,66.3,30.10,SSW,203,0.4,4.9,83,0.00,,,0.00,WUHU216HW,2013-07-09 12:35:00,
2013-07-09 08:40:00,72.0,66.3,30.09,West,270,2.5,4.9,82,0.00,,,0.00,WUHU216HW,2013-07-09 12:40:00,
2013-07-09 08:45:00,72.4,66.6,30.09,NW,315,1.3,4.9,82,0.00,,,0.00,WUHU216HW,2013-07-09 12:45:00,
2013-07-09 08:50:00,72.5,66.8,30.09,SSW,203,2.5,4.9,82,0.00,,,0.00,WUHU216HW,2013-07-09 12:50:00,
2013-07-09 08:55:00,73.1,67.6,30.09,SW,225,2.7,5.4,83,0.00,,,0.00,WUHU216HW,2013-07-09 12:55:00,
2013-07-09 09:00:00,73.4,67.7,30.09,SSW,203,2.7,8.5,82,0.00,,,0.00,WUHU216HW,2013-07-09 13:00:00,
2013-07-09 09:05:00,73.8,67.7,30.09,ESE,113,1.8,8.5,81,0.00,,,0.00,WUHU216HW,2013-07-09 13:05:00,
2013-07-09 09:10:00,74.0,67.9,30.09,SSW,203,1.6,6.3,81,0.00,,,0.00,WUHU216HW,2013-07-09 13:10:00,
2013-07-09 09:15:00,73.8,67.7,30.09,West,270,0.9,6.3,81,0.00,,,0.00,WUHU216HW,2013-07-09 13:15:00,
2013-07-09 09:20:00,73.8,67.7,30.10,SW,225,1.1,4.9,81,0.00,,,0.00,WUHU216HW,2013-07-09 13:20:00,
2013-07-09 09:25:00,73.8,67.7,30.10,NNE,23,0.4,4.9,81,0.00,,,0.00,WUHU216HW,2013-07-09 13:25:00,
2013-07-09 09:30:00,73.8,67.7,30.10,SW,225,2.5,4.9,81,0.00,,,0.00,WUHU216HW,2013-07-09 13:30:00,
2013-07-09 09:35:00,74.0,67.9,30.10,West,270,1.1,4.9,81,0.00,,,0.00,WUHU216HW,2013-07-09 13:35:00,
2013-07-09 09:40:00,74.3,68.2,30.10,WSW,248,2.9,4.9,81,0.00,,,0.00,WUHU216HW,2013-07-09 13:40:00,
2013-07-09 09:45:00,75.1,68.6,30.10,SSW,203,2.0,4.9,80,0.00,,,0.00,WUHU216HW,2013-07-09 13:45:00,
2013-07-09 09:50:00,75.6,69.1,30.09,SW,225,4.7,4.9,80,0.00,,,0.00,WUHU216HW,2013-07-09 13:50:00,
2013-07-09 09:55:00,76.5,69.5,30.09,WSW,248,3.6,6.5,79,0.00,,,0.00,WUHU216HW,2013-07-09 13:55:00,
2013-07-09 10:00:00,77.4,70.0,30.09,SW,225,2.9,6.5,78,0.00,,,0.00,WUHU216HW,2013-07-09 14:00:00,
2013-07-09 10:05:00,77.8,69.6,30.09,SW,225,4.0,4.9,76,0.00,,,0.00,WUHU216HW,2013-07-09 14:05:00,
2013-07-09 10:10:00,77.8,69.2,30.09,South,180,2.5,7.6,75,0.00,,,0.00,WUHU216HW,2013-07-09 14:10:00,
2013-07-09 10:15:00,77.8,69.2,30.09,South,180,2.5,7.6,75,0.00,,,0.00,WUHU216HW,2013-07-09 14:15:00,
2013-07-09 10:20:00,77.9,69.3,30.09,West,270,4.5,6.9,75,0.00,,,0.00,WUHU216HW,2013-07-09 14:20:00,
2013-07-09 10:25:00,78.1,69.5,30.09,SSW,203,2.7,6.9,75,0.00,,,0.00,WUHU216HW,2013-07-09 14:25:00,
2013-07-09 10:30:00,78.1,69.5,30.09,SW,225,4.7,5.6,75,0.00,,,0.00,WUHU216HW,2013-07-09 14:30:00,
2013-07-09 10:35:00,78.1,69.5,30.09,WSW,248,0.4,5.6,75,0.00,,,0.00,WUHU216HW,2013-07-09 14:35:00,
2013-07-09 10:40:00,77.8,69.6,30.09,SE,135,2.5,4.9,76,0.00,,,0.00,WUHU216HW,2013-07-09 14:40:00,
2013-07-09 10:45:00,77.6,69.4,30.09,SE,135,0.2,4.9,76,0.00,,,0.00,WUHU216HW,2013-07-09 14:45:00,
2013-07-09 10:50:00,77.4,69.6,30.09,SSE,158,0.0,4.9,77,0.00,,,0.00,WUHU216HW,2013-07-09 14:50:00,
2013-07-09 10:55:00,77.4,69.6,30.09,SW,225,2.0,4.9,77,0.00,,,0.00,WUHU216HW,2013-07-09 14:55:00,
2013-07-09 11:00:00,77.2,69.9,30.09,West,270,0.4,4.9,78,0.00,,,0.00,WUHU216HW,2013-07-09 15:00:00,
2013-07-09 11:06:00,77.0,69.7,30.09,SSW,203,1.3,5.1,78,0.00,,,0.00,WUHU216HW,2013-07-09 15:06:00,
2013-07-09 11:11:00,76.9,69.5,30.09,SW,225,3.4,5.1,78,0.00,,,0.00,WUHU216HW,2013-07-09 15:11:00,
2013-07-09 11:16:00,76.9,69.9,30.09,SSW,203,0.4,4.9,79,0.00,,,0.00,WUHU216HW,2013-07-09 15:16:00,
2013-07-09 11:21:00,76.7,69.7,30.09,WSW,248,2.5,4.9,79,0.00,,,0.00,WUHU216HW,2013-07-09 15:21:00,
2013-07-09 11:26:00,76.9,70.2,30.10,WNW,293,0.9,4.9,80,0.00,,,0.00,WUHU216HW,2013-07-09 15:26:00,
2013-07-09 11:31:00,77.0,70.4,30.10,SSE,158,0.4,4.9,80,0.00,,,0.00,WUHU216HW,2013-07-09 15:31:00,
2013-07-09 11:36:00,77.0,70.0,30.10,ENE,68,0.7,4.9,79,0.00,,,0.00,WUHU216HW,2013-07-09 15:36:00,
2013-07-09 11:41:00,77.2,70.2,30.10,SW,225,1.1,4.9,79,0.00,,,0.00,WUHU216HW,2013-07-09 15:41:00,
2013-07-09 11:46:00,77.8,70.8,30.10,SSW,203,2.0,4.9,79,0.00,,,0.00,WUHU216HW,2013-07-09 15:46:00,
2013-07-09 11:51:00,77.9,70.9,30.09,SE,135,1.8,4.9,79,0.00,,,0.00,WUHU216HW,2013-07-09 15:51:00,
2013-07-09 11:56:00,78.1,70.7,30.09,SSW,203,1.1,4.9,78,0.00,,,0.00,WUHU216HW,2013-07-09 15:56:00,
2013-07-09 12:01:00,78.1,70.7,30.09,NW,315,0.4,4.9,78,0.00,,,0.00,WUHU216HW,2013-07-09 16:01:00,
2013-07-09 12:06:00,78.1,71.1,30.10,SSE,158,0.4,4.9,79,0.00,,,0.00,WUHU216HW,2013-07-09 16:06:00,
2013-07-09 12:11:00,78.3,71.3,30.09,SW,225,1.3,4.9,79,0.00,,,0.00,WUHU216HW,2013-07-09 16:11:00,
2013-07-09 12:16:00,78.3,71.3,30.09,SE,135,0.2,4.9,79,0.00,,,0.00,WUHU216HW,2013-07-09 16:16:00,
2013-07-09 12:21:00,78.1,71.1,30.09,SSW,203,3.8,5.1,79,0.00,,,0.00,WUHU216HW,2013-07-09 16:21:00,
2013-07-09 12:26:00,78.1,71.5,30.10,WNW,293,0.0,5.1,80,0.00,,,0.00,WUHU216HW,2013-07-09 16:26:00,
2013-07-09 12:31:00,77.9,71.3,30.10,WNW,293,0.7,4.9,80,0.00,,,0.00,WUHU216HW,2013-07-09 16:31:00,
2013-07-09 12:36:00,77.8,71.1,30.10,WSW,248,1.1,4.9,80,0.00,,,0.00,WUHU216HW,2013-07-09 16:36:00,
2013-07-09 12:41:00,77.9,71.3,30.10,SSE,158,0.9,4.9,80,0.00,,,0.00,WUHU216HW,2013-07-09 16:41:00,
2013-07-09 12:46:00,77.8,71.1,30.10,WSW,248,0.4,4.9,80,0.00,,,0.00,WUHU216HW,2013-07-09 16:46:00,
2013-07-09 12:51:00,77.8,71.1,30.10,SW,225,2.5,4.9,80,0.00,,,0.00,WUHU216HW,2013-07-09 16:51:00,
2013-07-09 12:56:00,77.6,70.9,30.10,SSW,203,2.2,4.9,80,0.00,,,0.00,WUHU216HW,2013-07-09 16:56:00,
2013-07-09 13:01:00,77.6,70.9,30.10,SW,225,0.2,4.9,80,0.00,,,0.00,WUHU216HW,2013-07-09 17:01:00,
2013-07-09 13:06:00,77.9,71.3,30.10,SSW,203,3.4,5.8,80,0.00,,,0.00,WUHU216HW,2013-07-09 17:06:00,
2013-07-09 13:11:00,78.1,71.1,30.10,SSW,203,2.5,5.8,79,0.00,,,0.00,WUHU216HW,2013-07-09 17:11:00,
2013-07-09 13:16:00,78.5,71.5,30.09,SW,225,1.8,4.9,79,0.00,,,0.00,WUHU216HW,2013-07-09 17:16:00,
2013-07-09 13:21:00,78.7,71.2,30.09,WSW,248,3.4,4.9,78,0.00,,,0.00,WUHU216HW,2013-07-09 17:21:00,
2013-07-09 13:26:00,78.7,71.2,30.08,SSW,203,2.9,4.9,78,0.00,,,0.00,WUHU216HW,2013-07-09 17:26:00,
2013-07-09 13:31:00,78.7,71.7,30.09,SSW,203,3.4,4.9,79,0.00,,,0.00,WUHU216HW,2013-07-09 17:31:00,
2013-07-09 13:36:00,78.3,71.3,30.08,SSE,158,2.2,4.9,79,0.00,,,0.00,WUHU216HW,2013-07-09 17:36:00,
2013-07-09 13:42:00,77.9,70.9,30.08,SW,225,4.5,4.9,79,0.00,,,0.00,WUHU216HW,2013-07-09 17:42:00,
2013-07-09 13:47:00,77.6,70.9,30.08,South,180,0.2,4.9,80,0.00,,,0.00,WUHU216HW,2013-07-09 17:47:00,
2013-07-09 13:52:00,77.8,71.1,30.08,South,180,0.4,4.9,80,0.00,,,0.00,WUHU216HW,2013-07-09 17:52:00,
2013-07-09 13:57:00,77.9,71.3,30.08,South,180,1.8,4.9,80,0.00,,,0.00,WUHU216HW,2013-07-09 17:57:00,
2013-07-09 14:02:00,78.1,71.5,30.08,SW,225,2.9,4.9,80,0.00,,,0.00,WUHU216HW,2013-07-09 18:02:00,
2013-07-09 14:07:00,78.1,71.5,30.08,South,180,0.4,4.9,80,0.00,,,0.00,WUHU216HW,2013-07-09 18:07:00,
2013-07-09 14:12:00,77.9,71.6,30.07,West,270,0.0,4.9,81,0.00,,,0.00,WUHU216HW,2013-07-09 18:12:00,
2013-07-09 14:17:00,77.8,71.5,30.07,SSW,203,1.8,4.9,81,0.00,,,0.00,WUHU216HW,2013-07-09 18:17:00,
2013-07-09 14:22:00,77.9,71.6,30.07,WSW,248,0.4,4.9,81,0.00,,,0.00,WUHU216HW,2013-07-09 18:22:00,
2013-07-09 14:27:00,77.9,71.3,30.07,SSW,203,1.1,4.9,80,0.00,,,0.00,WUHU216HW,2013-07-09 18:27:00,
2013-07-09 14:32:00,78.1,71.8,30.07,South,180,1.1,4.9,81,0.00,,,0.00,WUHU216HW,2013-07-09 18:32:00,
2013-07-09 14:37:00,78.1,71.1,30.07,WNW,293,4.0,5.8,79,0.00,,,0.00,WUHU216HW,2013-07-09 18:37:00,
2013-07-09 14:42:00,78.8,71.0,30.06,SSE,158,2.2,6.7,77,0.00,,,0.00,WUHU216HW,2013-07-09 18:42:00,
2013-07-09 14:47:00,79.7,71.1,30.07,SSW,203,4.5,6.7,75,0.00,,,0.00,WUHU216HW,2013-07-09 18:47:00,
2013-07-09 14:52:00,80.3,71.6,30.06,WSW,248,3.4,5.1,75,0.00,,,0.00,WUHU216HW,2013-07-09 18:52:00,
2013-07-09 14:57:00,80.6,71.7,30.06,West,270,1.1,5.1,74,0.00,,,0.00,WUHU216HW,2013-07-09 18:57:00,
2013-07-09 15:02:00,80.6,71.7,30.06,South,180,1.1,4.9,74,0.00,,,0.00,WUHU216HW,2013-07-09 19:02:00,
2013-07-09 15:07:00,80.5,71.8,30.06,SW,225,1.1,4.9,75,0.00,,,0.00,WUHU216HW,2013-07-09 19:07:00,
2013-07-09 15:12:00,80.5,70.7,30.06,SSE,158,3.6,4.9,72,0.00,,,0.00,WUHU216HW,2013-07-09 19:12:00,
2013-07-09 15:17:00,80.6,71.2,30.05,West,270,5.6,5.8,73,0.00,,,0.00,WUHU216HW,2013-07-09 19:17:00,
2013-07-09 15:22:00,80.8,71.7,30.05,SW,225,1.8,5.8,74,0.00,,,0.00,WUHU216HW,2013-07-09 19:22:00,
2013-07-09 15:27:00,81.0,71.6,30.05,SSW,203,1.1,4.9,73,0.00,,,0.00,WUHU216HW,2013-07-09 19:27:00,
2013-07-09 15:32:00,81.0,70.7,30.05,SW,225,6.3,6.9,71,0.00,,,0.00,WUHU216HW,2013-07-09 19:32:00,
2013-07-09 15:37:00,81.4,71.9,30.05,SSW,203,6.9,7.6,73,0.00,,,0.00,WUHU216HW,2013-07-09 19:37:00,
2013-07-09 15:42:00,81.5,71.6,30.04,SSW,203,6.9,7.6,72,0.00,,,0.00,WUHU216HW,2013-07-09 19:42:00,
2013-07-09 15:47:00,82.1,72.2,30.04,SSW,203,9.8,9.8,72,0.00,,,0.00,WUHU216HW,2013-07-09 19:47:00,
2013-07-09 15:52:00,82.4,72.1,30.04,SSE,158,5.4,9.8,71,0.00,,,0.00,WUHU216HW,2013-07-09 19:52:00,
2013-07-09 15:57:00,82.6,73.1,30.03,WSW,248,2.2,6.3,73,0.00,,,0.00,WUHU216HW,2013-07-09 19:57:00,
2013-07-09 16:02:00,82.8,73.3,30.03,SW,225,2.9,4.9,73,0.00,,,0.00,WUHU216HW,2013-07-09 20:02:00,
2013-07-09 16:07:00,82.8,72.8,30.03,South,180,5.6,5.6,72,0.00,,,0.00,WUHU216HW,2013-07-09 20:07:00,
2013-07-09 16:12:00,83.0,72.2,30.02,SSW,203,1.3,7.6,70,0.00,,,0.00,WUHU216HW,2013-07-09 20:12:00,
2013-07-09 16:17:00,83.0,71.3,30.02,SSW,203,5.8,7.6,68,0.00,,,0.00,WUHU216HW,2013-07-09 20:17:00,
2013-07-09 16:22:00,83.3,72.1,30.02,WSW,248,4.7,6.3,69,0.00,,,0.00,WUHU216HW,2013-07-09 20:22:00,
2013-07-09 16:27:00,83.3,71.6,30.02,SSE,158,7.2,7.6,68,0.00,,,0.00,WUHU216HW,2013-07-09 20:27:00,
2013-07-09 16:32:00,83.3,71.6,30.02,SW,225,4.5,7.6,68,0.00,,,0.00,WUHU216HW,2013-07-09 20:32:00,
2013-07-09 16:37:00,83.5,71.8,30.02,SSW,203,4.7,4.9,68,0.00,,,0.00,WUHU216HW,2013-07-09 20:37:00,
2013-07-09 16:42:00,83.3,71.6,30.01,SSW,203,5.1,7.2,68,0.00,,,0.00,WUHU216HW,2013-07-09 20:42:00,
2013-07-09 16:47:00,83.5,71.4,30.01,SSE,158,5.4,8.3,67,0.00,,,0.00,WUHU216HW,2013-07-09 20:47:00,
2013-07-09 16:52:00,83.5,71.4,30.01,SSW,203,4.3,8.3,67,0.00,,,0.00,WUHU216HW,2013-07-09 20:52:00,
2013-07-09 16:57:00,83.3,71.6,30.01,SW,225,3.6,6.0,68,0.00,,,0.00,WUHU216HW,2013-07-09 20:57:00,
2013-07-09 17:02:00,83.7,71.6,30.01,SW,225,4.3,12.1,67,0.00,,,0.00,WUHU216HW,2013-07-09 21:02:00,
2013-07-09 17:07:00,83.7,70.2,30.01,SSE,158,6.5,12.1,64,0.00,,,0.00,WUHU216HW,2013-07-09 21:07:00,
2013-07-09 17:12:00,83.9,70.8,30.01,SSW,203,4.3,8.3,65,0.00,,,0.00,WUHU216HW,2013-07-09 21:12:00,
2013-07-09 17:17:00,83.9,71.7,30.00,SW,225,7.6,8.9,67,0.00,,,0.00,WUHU216HW,2013-07-09 21:17:00,
2013-07-09 17:22:00,83.9,70.8,30.00,South,180,6.3,9.8,65,0.00,,,0.00,WUHU216HW,2013-07-09 21:22:00,
2013-07-09 17:27:00,83.9,70.8,30.00,SW,225,10.3,10.3,65,0.00,,,0.00,WUHU216HW,2013-07-09 21:27:00,
2013-07-09 17:32:00,83.9,71.3,30.00,SW,225,2.7,10.3,66,0.00,,,0.00,WUHU216HW,2013-07-09 21:32:00,
2013-07-09 17:37:00,83.9,70.8,30.00,South,180,7.2,7.2,65,0.00,,,0.00,WUHU216HW,2013-07-09 21:37:00,
2013-07-09 17:42:00,83.9,70.4,30.00,SW,225,9.6,10.1,64,0.00,,,0.00,WUHU216HW,2013-07-09 21:42:00,
2013-07-09 17:47:00,83.9,71.3,30.00,SSW,203,3.4,10.1,66,0.00,,,0.00,WUHU216HW,2013-07-09 21:47:00,
2013-07-09 17:52:00,83.9,70.8,30.00,SSW,203,1.6,7.8,65,0.00,,,0.00,WUHU216HW,2013-07-09 21:52:00,
2013-07-09 17:57:00,83.7,71.1,29.99,SSW,203,5.1,7.8,66,0.00,,,0.00,WUHU216HW,2013-07-09 21:57:00,
2013-07-09 18:02:00,83.7,70.7,30.00,SW,225,9.4,9.4,65,0.00,,,0.00,WUHU216HW,2013-07-09 22:02:00,
2013-07-09 18:07:00,83.7,71.6,30.00,SW,225,5.8,9.4,67,0.00,,,0.00,WUHU216HW,2013-07-09 22:07:00,
2013-07-09 18:12:00,83.7,71.6,29.99,SSW,203,1.3,5.8,67,0.00,,,0.00,WUHU216HW,2013-07-09 22:12:00,
2013-07-09 18:17:00,83.5,70.9,29.99,South,180,4.7,8.9,66,0.00,,,0.00,WUHU216HW,2013-07-09 22:17:00,
2013-07-09 18:22:00,83.5,71.4,29.99,SSW,203,5.6,8.9,67,0.00,,,0.00,WUHU216HW,2013-07-09 22:22:00,
2013-07-09 18:27:00,83.5,71.4,29.99,WSW,248,1.8,10.5,67,0.00,,,0.00,WUHU216HW,2013-07-09 22:27:00,
2013-07-09 18:32:00,83.2,71.5,29.99,WSW,248,4.3,10.5,68,0.00,,,0.00,WUHU216HW,2013-07-09 22:32:00,
2013-07-09 18:37:00,83.0,70.8,29.99,SSW,203,11.2,11.2,67,0.00,,,0.00,WUHU216HW,2013-07-09 22:37:00,
2013-07-09 18:42:00,83.0,70.8,29.99,West,270,2.7,11.2,67,0.00,,,0.00,WUHU216HW,2013-07-09 22:42:00,
2013-07-09 18:47:00,82.8,71.1,29.99,WSW,248,5.6,9.8,68,0.00,,,0.00,WUHU216HW,2013-07-09 22:47:00,
2013-07-09 18:52:00,82.6,70.9,29.99,SW,225,4.7,7.8,68,0.00,,,0.00,WUHU216HW,2013-07-09 22:52:00,
2013-07-09 18:57:00,82.4,70.7,30.00,WSW,248,8.3,8.3,68,0.00,,,0.00,WUHU216HW,2013-07-09 22:57:00,
2013-07-09 19:02:00,82.4,71.2,30.00,SW,225,5.1,8.3,69,0.00,,,0.00,WUHU216HW,2013-07-09 23:02:00,
2013-07-09 19:07:00,82.4,71.6,30.00,SW,225,6.3,7.2,70,0.00,,,0.00,WUHU216HW,2013-07-09 23:07:00,
2013-07-09 19:12:00,82.3,71.0,30.00,South,180,3.6,6.3,69,0.00,,,0.00,WUHU216HW,2013-07-09 23:12:00,
2013-07-09 19:17:00,82.3,71.5,30.00,WSW,248,4.3,7.8,70,0.00,,,0.00,WUHU216HW,2013-07-09 23:17:00,
2013-07-09 19:23:00,82.1,70.8,30.00,SW,225,6.5,7.8,69,0.00,,,0.00,WUHU216HW,2013-07-09 23:23:00,
2013-07-09 19:28:00,81.9,71.2,29.99,SSW,203,3.4,6.5,70,0.00,,,0.00,WUHU216HW,2013-07-09 23:28:00,
2013-07-09 19:33:00,81.7,71.0,30.00,SSW,203,3.1,5.4,70,0.00,,,0.00,WUHU216HW,2013-07-09 23:33:00,
2013-07-09 19:38:00,81.5,71.3,30.00,South,180,1.1,5.4,71,0.00,,,0.00,WUHU216HW,2013-07-09 23:38:00,
2013-07-09 19:45:00,81.0,70.7,30.00,SSW,203,2.7,6.9,71,0.00,,,0.00,WUHU216HW,2013-07-09 23:45:00,
2013-07-09 19:50:00,80.8,70.6,30.00,WSW,248,3.8,4.9,71,0.00,,,0.00,WUHU216HW,2013-07-09 23:50:00,
2013-07-09 19:55:00,80.6,70.4,30.00,SW,225,4.0,4.9,71,0.00,,,0.00,WUHU216HW,2013-07-09 23:55:00,
2013-07-09 20:00:00,80.3,70.5,30.00,South,180,3.1,4.9,72,0.00,,,0.00,WUHU216HW,2013-07-10 00:00:00,
2013-07-09 20:05:00,80.1,70.3,30.00,SSW,203,4.0,4.9,72,0.00,,,0.00,WUHU216HW,2013-07-10 00:05:00,
2013-07-09 20:10:00,79.7,70.3,30.00,SW,225,2.2,4.9,73,0.00,,,0.00,WUHU216HW,2013-07-10 00:10:00,
2013-07-09 20:15:00,79.6,70.1,30.01,SSW,203,1.1,4.9,73,0.00,,,0.00,WUHU216HW,2013-07-10 00:15:00,
2013-07-09 20:20:00,79.2,70.2,30.00,SSW,203,3.4,4.9,74,0.00,,,0.00,WUHU216HW,2013-07-10 00:20:00,
2013-07-09 20:25:00,79.0,70.0,30.00,SW,225,3.6,5.4,74,0.00,,,0.00,WUHU216HW,2013-07-10 00:25:00,
2013-07-09 20:30:00,78.7,69.7,30.01,SW,225,2.5,5.4,74,0.00,,,0.00,WUHU216HW,2013-07-10 00:30:00,
2013-07-09 20:35:00,78.5,69.5,30.00,SW,225,1.6,4.9,74,0.00,,,0.00,WUHU216HW,2013-07-10 00:35:00,
2013-07-09 20:40:00,78.3,69.3,30.00,WSW,248,3.4,4.9,74,0.00,,,0.00,WUHU216HW,2013-07-10 00:40:00,
2013-07-09 20:45:00,78.1,69.1,30.00,SW,225,3.1,4.9,74,0.00,,,0.00,WUHU216HW,2013-07-10 00:45:00,
2013-07-09 20:50:00,77.9,68.9,30.00,SSW,203,3.1,4.9,74,0.00,,,0.00,WUHU216HW,2013-07-10 00:50:00,
2013-07-09 20:55:00,77.6,68.6,30.01,SSW,203,0.4,4.9,74,0.00,,,0.00,WUHU216HW,2013-07-10 00:55:00,
2013-07-09 21:00:00,77.6,69.0,30.01,South,180,2.9,4.9,75,0.00,,,0.00,WUHU216HW,2013-07-10 01:00:00,
2013-07-09 21:05:00,77.4,68.9,30.01,SW,225,3.6,4.9,75,0.00,,,0.00,WUHU216HW,2013-07-10 01:05:00,
2013-07-09 21:10:00,77.4,68.9,30.01,SSW,203,2.5,4.9,75,0.00,,,0.00,WUHU216HW,2013-07-10 01:10:00,
2013-07-09 21:15:00,77.2,68.7,30.02,SSW,203,3.8,4.9,75,0.00,,,0.00,WUHU216HW,2013-07-10 01:15:00,
2013-07-09 21:20:00,77.0,68.5,30.02,SSW,203,2.7,4.9,75,0.00,,,0.00,WUHU216HW,2013-07-10 01:20:00,
2013-07-09 21:25:00,76.9,68.3,30.02,WSW,248,2.2,4.9,75,0.00,,,0.00,WUHU216HW,2013-07-10 01:25:00,
2013-07-09 21:30:00,76.9,68.3,30.02,SSW,203,2.9,4.9,75,0.00,,,0.00,WUHU216HW,2013-07-10 01:30:00,
2013-07-09 21:35:00,76.9,68.3,30.02,SW,225,1.3,4.9,75,0.00,,,0.00,WUHU216HW,2013-07-10 01:35:00,
2013-07-09 21:41:00,76.7,68.1,30.02,SW,225,0.0,4.9,75,0.00,,,0.00,WUHU216HW,2013-07-10 01:41:00,
2013-07-09 21:46:00,76.7,68.1,30.03,WSW,248,0.4,4.9,75,0.00,,,0.00,WUHU216HW,2013-07-10 01:46:00,
2013-07-09 21:51:00,76.5,68.4,30.03,SW,225,1.8,4.9,76,0.00,,,0.00,WUHU216HW,2013-07-10 01:51:00,
2013-07-09 21:56:00,76.1,68.1,30.03,WSW,248,0.0,4.9,76,0.00,,,0.00,WUHU216HW,2013-07-10 01:56:00,
2013-07-09 22:01:00,76.0,68.2,30.04,South,180,0.2,4.9,77,0.00,,,0.00,WUHU216HW,2013-07-10 02:01:00,
2013-07-09 22:06:00,76.0,68.2,30.03,SW,225,3.1,4.9,77,0.00,,,0.00,WUHU216HW,2013-07-10 02:06:00,
2013-07-09 22:11:00,75.8,68.0,30.03,SW,225,1.6,4.9,77,0.00,,,0.00,WUHU216HW,2013-07-10 02:11:00,
2013-07-09 22:16:00,75.8,68.0,30.03,SW,225,1.6,4.9,77,0.00,,,0.00,WUHU216HW,2013-07-10 02:16:00,
2013-07-09 22:21:00,75.6,68.0,30.02,SW,225,1.8,4.9,77,0.00,,,0.00,WUHU216HW,2013-07-10 02:21:00,
2013-07-09 22:26:00,75.6,68.0,30.02,SW,225,1.3,4.9,77,0.00,,,0.00,WUHU216HW,2013-07-10 02:26:00,
2013-07-09 22:31:00,75.6,68.0,30.02,SW,225,0.0,4.9,77,0.00,,,0.00,WUHU216HW,2013-07-10 02:31:00,
2013-07-09 22:36:00,75.6,68.0,30.02,SW,225,0.7,4.9,77,0.00,,,0.00,WUHU216HW,2013-07-10 02:36:00,
2013-07-09 22:41:00,75.4,68.1,30.02,SSW,203,0.2,4.9,78,0.00,,,0.00,WUHU216HW,2013-07-10 02:41:00,
2013-07-09 22:46:00,75.2,68.0,30.02,SW,225,1.1,4.9,78,0.00,,,0.00,WUHU216HW,2013-07-10 02:46:00,
2013-07-09 22:51:00,75.1,68.2,30.02,SW,225,2.9,4.9,79,0.00,,,0.00,WUHU216HW,2013-07-10 02:51:00,
2013-07-09 22:56:00,74.9,68.1,30.02,WSW,248,2.5,4.9,79,0.00,,,0.00,WUHU216HW,2013-07-10 02:56:00,
2013-07-09 23:01:00,74.7,67.9,30.01,SW,225,1.3,4.9,79,0.00,,,0.00,WUHU216HW,2013-07-10 03:01:00,
2013-07-09 23:06:00,74.5,68.0,30.02,SSW,203,0.2,4.9,80,0.00,,,0.00,WUHU216HW,2013-07-10 03:06:00,
2013-07-09 23:11:00,74.5,68.0,30.01,SW,225,2.0,4.9,80,0.00,,,0.00,WUHU216HW,2013-07-10 03:11:00,
2013-07-09 23:16:00,74.5,68.0,30.01,SW,225,4.0,4.9,80,0.00,,,0.00,WUHU216HW,2013-07-10 03:16:00,
2013-07-09 23:21:00,74.5,68.0,30.01,SSW,203,3.1,4.9,80,0.00,,,0.00,WUHU216HW,2013-07-10 03:21:00,
2013-07-09 23:26:00,74.3,68.2,30.01,SW,225,3.4,5.1,81,0.00,,,0.00,WUHU216HW,2013-07-10 03:26:00,
2013-07-09 23:31:00,74.3,68.2,30.01,SSW,203,0.4,5.1,81,0.00,,,0.00,WUHU216HW,2013-07-10 03:31:00,
2013-07-09 23:36:00,74.3,67.9,30.01,SW,225,1.3,4.9,80,0.00,,,0.00,WUHU216HW,2013-07-10 03:36:00,
2013-07-09 23:41:00,74.3,67.9,30.00,SW,225,1.8,4.9,80,0.00,,,0.00,WUHU216HW,2013-07-10 03:41:00,
2013-07-09 23:46:00,74.3,68.2,30.00,SSW,203,1.1,4.9,81,0.00,,,0.00,WUHU216HW,2013-07-10 03:46:00,
2013-07-09 23:51:00,74.5,68.4,30.00,SW,225,1.3,4.9,81,0.00,,,0.00,WUHU216HW,2013-07-10 03:51:00,
2013-07-09 23:56:00,74.5,68.4,30.00,SSW,203,1.8,4.9,81,0.00,,,0.00,WUHU216HW,2013-07-10 03:56:00,